Time,TemperatureF,DewpointF,PressureIn,WindDirection,WindDirectionDegrees,WindSpeedMPH,WindSpeedGustMPH,Humidity,HourlyPrecipIn,Conditions,Clouds,dailyrainin,SoftwareType,DateUTC
2015-08-30 00:00:00,50.7,41.7,29.95,WSW,248,0.0,1.0,71,0.00,,---,0.00,VWS V14.01,2015-08-30 07:00:00,
2015-08-30 00:24:00,49.8,40.8,29.95,WSW,246,0.0,0.0,71,0.00,,---,0.00,VWS V14.01,2015-08-30 07:24:00,
2015-08-30 00:34:00,49.4,40.8,29.96,WSW,247,0.0,1.0,72,0.00,,---,0.00,VWS V14.01,2015-08-30 07:34:00,
2015-08-30 00:44:00,49.0,40.7,29.96,North,360,0.0,1.0,73,0.00,,---,0.00,VWS V14.01,2015-08-30 07:44:00,
2015-08-30 00:54:00,48.6,40.7,29.96,WSW,247,0.0,1.0,74,0.00,,---,0.00,VWS V14.01,2015-08-30 07:54:00,
2015-08-30 01:04:00,48.4,40.5,29.96,WSW,246,0.0,0.0,74,0.00,,---,0.00,VWS V14.01,2015-08-30 08:04:00,
2015-08-30 01:14:00,48.0,40.5,29.96,WSW,246,0.0,1.0,75,0.00,,---,0.00,VWS V14.01,2015-08-30 08:14:00,
2015-08-30 01:24:00,47.7,40.2,29.96,WSW,247,0.0,1.0,75,0.00,,---,0.00,VWS V14.01,2015-08-30 08:24:00,
2015-08-30 01:34:00,47.4,40.2,29.96,WSW,244,0.0,1.0,76,0.00,,---,0.00,VWS V14.01,2015-08-30 08:34:00,
2015-08-30 01:44:00,47.2,40.4,29.96,WSW,238,0.0,1.0,77,0.00,,---,0.00,VWS V14.01,2015-08-30 08:44:00,
2015-08-30 01:54:00,47.1,40.3,29.96,WSW,237,0.0,1.0,77,0.00,,---,0.00,VWS V14.01,2015-08-30 08:54:00,
2015-08-30 02:04:00,46.9,40.4,29.96,WSW,237,0.0,1.0,78,0.00,,---,0.00,VWS V14.01,2015-08-30 09:04:00,
2015-08-30 02:14:00,46.7,40.5,29.96,WSW,237,1.0,2.0,79,0.00,,---,0.00,VWS V14.01,2015-08-30 09:14:00,
2015-08-30 02:24:00,46.5,40.3,29.96,SW,232,0.0,2.0,79,0.00,,---,0.00,VWS V14.01,2015-08-30 09:24:00,
2015-08-30 02:34:00,46.3,40.5,29.97,SW,232,0.0,1.0,80,0.00,,---,0.00,VWS V14.01,2015-08-30 09:34:00,
2015-08-30 02:44:00,46.1,40.3,29.97,SW,233,0.0,1.0,80,0.00,,---,0.00,VWS V14.01,2015-08-30 09:44:00,
2015-08-30 02:54:00,46.0,40.2,29.97,SW,233,0.0,1.0,80,0.00,,---,0.00,VWS V14.01,2015-08-30 09:54:00,
2015-08-30 03:04:00,45.8,40.0,29.96,SW,232,0.0,1.0,80,0.00,,---,0.00,VWS V14.01,2015-08-30 10:04:00,
2015-08-30 03:14:00,45.5,39.7,29.96,SW,233,0.0,2.0,80,0.00,,---,0.00,VWS V14.01,2015-08-30 10:14:00,
2015-08-30 03:24:00,45.3,39.8,29.97,SW,232,0.0,1.0,81,0.00,,---,0.00,VWS V14.01,2015-08-30 10:24:00,
2015-08-30 03:34:00,45.0,39.5,29.97,SW,233,0.0,1.0,81,0.00,,---,0.00,VWS V14.01,2015-08-30 10:34:00,
2015-08-30 03:44:00,44.8,39.3,29.97,SW,232,0.0,1.0,81,0.00,,---,0.00,VWS V14.01,2015-08-30 10:44:00,
2015-08-30 03:54:00,44.6,39.1,29.97,SW,232,0.0,1.0,81,0.00,,---,0.00,VWS V14.01,2015-08-30 10:54:00,
2015-08-30 04:04:00,44.3,39.2,29.97,North,360,0.0,1.0,82,0.00,,---,0.00,VWS V14.01,2015-08-30 11:04:00,
2015-08-30 04:14:00,44.1,39.0,30.00,SW,234,0.0,1.0,82,0.00,,---,0.00,VWS V14.01,2015-08-30 11:14:00,
2015-08-30 04:24:00,43.9,38.8,30.00,SW,232,0.0,1.0,82,0.00,,---,0.00,VWS V14.01,2015-08-30 11:24:00,
2015-08-30 04:34:00,43.7,38.9,30.00,SW,234,0.0,1.0,83,0.00,,---,0.00,VWS V14.01,2015-08-30 11:34:00,
2015-08-30 04:44:00,43.4,38.6,30.00,SW,232,0.0,1.0,83,0.00,,---,0.00,VWS V14.01,2015-08-30 11:44:00,
2015-08-30 04:54:00,43.3,38.5,30.00,SW,233,0.0,1.0,83,0.00,,---,0.00,VWS V14.01,2015-08-30 11:54:00,
2015-08-30 05:04:00,43.1,38.3,30.00,North,360,0.0,1.0,83,0.00,,---,0.00,VWS V14.01,2015-08-30 12:04:00,
2015-08-30 05:14:00,42.9,38.1,30.00,SW,233,0.0,1.0,83,0.00,,---,0.00,VWS V14.01,2015-08-30 12:14:00,
2015-08-30 05:24:00,42.7,37.9,30.00,SW,234,0.0,1.0,83,0.00,,---,0.00,VWS V14.01,2015-08-30 12:24:00,
2015-08-30 05:34:00,42.6,37.8,30.00,SW,232,0.0,1.0,83,0.00,,---,0.00,VWS V14.01,2015-08-30 12:34:00,
2015-08-30 05:44:00,42.4,37.6,30.01,SW,232,0.0,1.0,83,0.00,,---,0.00,VWS V14.01,2015-08-30 12:44:00,
2015-08-30 05:54:00,42.3,37.5,30.02,SW,230,0.0,1.0,83,0.00,,---,0.00,VWS V14.01,2015-08-30 12:54:00,
2015-08-30 06:04:00,42.1,37.6,30.02,SW,232,0.0,1.0,84,0.00,,---,0.00,VWS V14.01,2015-08-30 13:04:00,
2015-08-30 06:14:00,41.9,37.4,30.04,North,360,0.0,1.0,84,0.00,,---,0.00,VWS V14.01,2015-08-30 13:14:00,
2015-08-30 06:24:00,41.8,37.3,30.04,North,360,0.0,1.0,84,0.00,,---,0.00,VWS V14.01,2015-08-30 13:24:00,